Pythagoras — C6ZO4 — position and weather

sailwx.info

Track history (hours):
 
Tides and Currents Weather Stations Pressure Air Temp Water Temp Dewpoint Dewpoint Depression Visibility Wind Speed Wind Dir Waves Ship Positions

Pythagoras

Last reported at 2016-Jul-29 02:04 UTC. Time now 2016-Jul-30 03:36 UTC.
Position N 40°52' E 028°32'.

Length 190 m; draft 10.5 m.

Type: Cargo ship. MMSI: 311061300.

Date/timePositionNaut miles runAvg speedWind from/ knotsBaromVisibWave heightAir tempDewpointWater temp
2016-Jul-29 02:04N 40°52' E 028°32'812.9
2016-Jul-29 01:26N 40°54' E 028°42'1011.4
2016-Jul-29 00:32N 40°57' E 028°55'0 0.4
2016-Jul-28 23:28N 40°57' E 028°55'0 0.0
2016-Jul-28 22:33N 40°57' E 028°55'0 0.0
2016-Jul-28 20:22N 40°57' E 028°55'0 0.1
2016-Jul-28 17:21N 40°57' E 028°55'4 5.5
2016-Jul-28 16:33N 41°00' E 028°60'  
2016-Jul-23 12:31N 44°10' E 034°03'1313.6
2016-Jul-23 11:33N 44°11' E 034°22'1414.0
2016-Jul-23 10:33N 44°15' E 034°40'1413.9
2016-Jul-23 09:33N 44°20' E 034°58'1414.1
2016-Jul-23 08:34N 44°25' E 035°17'6513.0
2016-Jul-23 03:33N 45°04' E 036°29'1111.1
2016-Jul-23 02:33N 45°15' E 036°27'8 8.4
2016-Jul-23 01:33N 45°20' E 036°37'7 7.3
2016-Jul-23 00:33N 45°27' E 036°41'9 8.7
2016-Jul-22 23:33N 45°36' E 036°40'  
Track history (hours):
 
Tides and Currents Weather Stations Pressure Air Temp Water Temp Dewpoint Dewpoint Depression Visibility Wind Speed Wind Dir Waves Ship Positions

Pythagoras

Last reported at 2016-Jul-29 02:04 UTC. Time now 2016-Jul-30 03:36 UTC.
Position N 40°52' E 028°32'.

Length 190 m; draft 10.5 m.

Type: Cargo ship. MMSI: 311061300.

Date/timePositionNaut miles runAvg speedWind from/ knotsBaromVisibWave heightAir tempDewpointWater temp
2016-Jul-29 02:04N 40°52' E 028°32'812.9
2016-Jul-29 01:26N 40°54' E 028°42'1011.4
2016-Jul-29 00:32N 40°57' E 028°55'0 0.4
2016-Jul-28 23:28N 40°57' E 028°55'0 0.0
2016-Jul-28 22:33N 40°57' E 028°55'0 0.0
2016-Jul-28 20:22N 40°57' E 028°55'0 0.1
2016-Jul-28 17:21N 40°57' E 028°55'4 5.5
2016-Jul-28 16:33N 41°00' E 028°60'  
2016-Jul-23 12:31N 44°10' E 034°03'1313.6
2016-Jul-23 11:33N 44°11' E 034°22'1414.0
2016-Jul-23 10:33N 44°15' E 034°40'1413.9
2016-Jul-23 09:33N 44°20' E 034°58'1414.1
2016-Jul-23 08:34N 44°25' E 035°17'6513.0
2016-Jul-23 03:33N 45°04' E 036°29'1111.1
2016-Jul-23 02:33N 45°15' E 036°27'8 8.4
2016-Jul-23 01:33N 45°20' E 036°37'7 7.3
2016-Jul-23 00:33N 45°27' E 036°41'9 8.7
2016-Jul-22 23:33N 45°36' E 036°40'  

Dump ship's entire track history